createdAt,value
2022-11-20T00:00:57.100Z,101092.06
2022-11-20T00:03:28.956Z,101100.63
2022-11-20T00:06:03.453Z,101098.16
2022-11-20T00:08:35.452Z,101093.75
2022-11-20T00:11:20.338Z,101085.78
2022-11-20T00:13:56.101Z,101088.50
2022-11-20T00:16:31.049Z,101101.47
2022-11-20T00:19:03.350Z,101089.97
2022-11-20T00:21:35.242Z,101089.84
2022-11-20T00:24:10.178Z,101086.25
2022-11-20T00:26:42.104Z,101084.47
2022-11-20T00:29:14.084Z,101086.25
2022-11-20T00:31:46.018Z,101077.38
2022-11-20T00:34:18.031Z,101079.25
2022-11-20T00:36:49.998Z,101079.19
2022-11-20T00:39:22.178Z,101080.88
2022-11-20T00:41:54.361Z,101083.56
2022-11-20T00:44:26.367Z,101079.06
2022-11-20T00:46:58.332Z,101072.66
2022-11-20T00:49:30.200Z,101080.66
2022-11-20T00:52:02.206Z,101085.84
2022-11-20T00:54:34.085Z,101080.66
2022-11-20T00:57:05.951Z,101087.53
2022-11-20T00:59:37.877Z,101083.84
2022-11-20T01:02:09.767Z,101081.91
2022-11-20T01:04:41.783Z,101071.25
2022-11-20T01:07:13.752Z,101079.09
2022-11-20T01:09:45.671Z,101078.00
2022-11-20T01:12:17.606Z,101077.00
2022-11-20T01:14:49.552Z,101069.72
2022-11-20T01:17:21.452Z,101069.34
2022-11-20T01:19:53.314Z,101078.00
2022-11-20T01:22:25.321Z,101077.78
2022-11-20T01:24:57.213Z,101070.91
2022-11-20T01:27:29.106Z,101082.97
2022-11-20T01:30:01.530Z,101057.56
2022-11-20T01:32:33.499Z,101077.38
2022-11-20T01:35:06.017Z,101067.69
2022-11-20T01:37:37.991Z,101072.41
2022-11-20T01:40:10.916Z,101058.81
2022-11-20T01:43:15.624Z,101071.19
2022-11-20T01:46:14.246Z,101066.59
2022-11-20T01:49:09.012Z,101076.75
2022-11-20T01:51:49.654Z,101069.53
2022-11-20T01:54:42.930Z,101073.13
2022-11-20T01:57:17.372Z,101078.31
2022-11-20T01:59:58.075Z,101077.41
2022-11-20T02:02:30.048Z,101079.91
2022-11-20T02:05:29.232Z,101065.50
2022-11-20T02:08:02.984Z,101064.81
2022-11-20T02:10:36.001Z,101062.53
2022-11-20T02:13:27.961Z,101072.13
2022-11-20T02:16:00.011Z,101067.72
2022-11-20T02:18:32.351Z,101067.94
2022-11-20T02:21:16.316Z,101045.19
2022-11-20T02:24:19.505Z,101061.19
2022-11-20T02:27:07.305Z,101059.78
2022-11-20T02:30:04.050Z,101065.09
2022-11-20T02:32:39.233Z,101047.16
2022-11-20T02:35:31.047Z,101058.22
2022-11-20T02:38:04.120Z,101053.91
2022-11-20T02:40:36.003Z,101051.44
2022-11-20T02:43:09.071Z,101020.16
2022-11-20T02:45:41.029Z,101050.81
2022-11-20T02:48:12.971Z,101044.75
2022-11-20T02:50:44.862Z,101059.31
2022-11-20T02:53:16.775Z,101063.25
2022-11-20T02:55:48.719Z,101048.19
2022-11-20T02:58:20.766Z,101063.47
2022-11-20T03:00:53.893Z,101054.13
2022-11-20T03:03:25.852Z,101056.44
2022-11-20T03:06:00.920Z,101049.00
2022-11-20T03:08:33.225Z,101043.25
2022-11-20T03:11:08.125Z,101055.72
2022-11-20T03:13:40.222Z,101047.66
2022-11-20T03:16:16.297Z,101046.25
2022-11-20T03:18:48.659Z,101054.16
2022-11-20T03:21:20.605Z,101051.06
2022-11-20T03:23:54.416Z,101026.91
2022-11-20T03:26:28.279Z,101046.09
2022-11-20T03:29:05.120Z,101045.09
2022-11-20T03:31:41.506Z,101033.91
2022-11-20T03:34:13.892Z,101031.81
2022-11-20T03:36:45.930Z,101034.03
2022-11-20T03:39:17.858Z,101035.19
2022-11-20T03:41:49.792Z,101025.72
2022-11-20T03:44:23.256Z,101018.06
2022-11-20T03:46:55.106Z,100981.59
2022-11-20T03:49:27.018Z,101012.06
2022-11-20T03:51:59.189Z,101013.88
2022-11-20T03:54:31.272Z,101017.56
2022-11-20T03:57:03.209Z,101006.00
2022-11-20T03:59:35.140Z,101008.59
2022-11-20T04:02:07.075Z,100998.41
2022-11-20T04:04:39.010Z,101007.94
2022-11-20T04:07:11.267Z,101004.44
2022-11-20T04:09:43.230Z,101004.38
2022-11-20T04:12:15.157Z,100984.56
2022-11-20T04:14:47.091Z,101006.41
2022-11-20T04:17:18.973Z,101011.59
2022-11-20T04:19:50.884Z,100995.63
2022-11-20T04:22:22.782Z,101005.53
2022-11-20T04:24:54.783Z,101006.63
2022-11-20T04:27:26.647Z,101003.94
2022-11-20T04:29:58.579Z,100995.16
2022-11-20T04:32:30.532Z,100991.19
2022-11-20T04:35:02.489Z,100999.75
2022-11-20T04:37:34.792Z,100991.00
2022-11-20T04:40:07.320Z,100993.78
2022-11-20T04:42:39.341Z,100995.56
2022-11-20T04:45:11.295Z,100986.00
2022-11-20T04:47:43.209Z,100988.81
2022-11-20T04:50:15.673Z,100987.78
2022-11-20T04:52:47.613Z,100987.00
2022-11-20T04:55:19.505Z,100987.91
2022-11-20T04:57:52.511Z,100991.19
2022-11-20T05:00:24.401Z,100972.41
2022-11-20T05:02:56.576Z,100986.59
2022-11-20T05:05:28.638Z,100985.69
2022-11-20T05:08:00.784Z,100974.78
2022-11-20T05:10:32.710Z,100980.28
2022-11-20T05:13:04.686Z,100975.59
2022-11-20T05:15:36.696Z,100975.69
2022-11-20T05:18:08.768Z,100958.03
2022-11-20T05:20:40.646Z,100959.81
2022-11-20T05:23:12.604Z,100966.81
2022-11-20T05:25:44.525Z,100954.34
2022-11-20T05:28:16.445Z,100965.31
2022-11-20T05:30:50.158Z,100958.66
2022-11-20T05:33:22.884Z,100965.66
2022-11-20T05:35:59.723Z,100958.06
2022-11-20T05:38:32.644Z,100957.50
2022-11-20T05:41:11.622Z,100948.28
2022-11-20T05:43:46.268Z,100958.41
2022-11-20T05:46:27.920Z,100968.44
2022-11-20T05:49:00.831Z,100961.81
2022-11-20T05:51:32.741Z,100971.63
2022-11-20T05:54:04.674Z,100972.59
2022-11-20T05:56:36.574Z,100976.00
2022-11-20T05:59:08.512Z,100980.16
2022-11-20T06:01:40.519Z,100990.16
2022-11-20T06:04:12.456Z,100984.91
2022-11-20T06:06:44.450Z,100988.47
2022-11-20T06:09:16.428Z,100994.69
2022-11-20T06:11:48.424Z,100984.41
2022-11-20T06:14:20.485Z,100991.81
2022-11-20T06:16:52.419Z,100984.94
2022-11-20T06:19:24.474Z,100979.06
2022-11-20T06:21:56.327Z,100975.88
2022-11-20T06:24:28.266Z,100974.28
2022-11-20T06:27:00.202Z,100976.47
2022-11-20T06:29:34.115Z,100974.31
2022-11-20T06:32:06.315Z,100981.28
2022-11-20T06:34:38.271Z,100983.22
2022-11-20T06:37:10.180Z,100984.28
2022-11-20T06:39:42.059Z,100970.00
2022-11-20T06:42:13.987Z,100960.53
2022-11-20T06:44:45.932Z,100968.22
2022-11-20T06:47:17.800Z,100967.66
2022-11-20T06:49:49.746Z,100963.84
2022-11-20T06:52:21.686Z,100965.44
2022-11-20T06:54:53.616Z,100965.72
2022-11-20T06:57:25.836Z,100955.94
2022-11-20T06:59:57.757Z,100965.44
2022-11-20T07:02:29.671Z,100967.72
2022-11-20T07:05:01.632Z,100969.53
2022-11-20T07:07:33.604Z,100974.91
2022-11-20T07:10:06.487Z,100967.91
2022-11-20T07:12:38.445Z,100972.19
2022-11-20T07:15:10.535Z,100967.00
2022-11-20T07:17:42.423Z,100965.63
2022-11-20T07:20:15.230Z,100962.94
2022-11-20T07:22:47.196Z,100950.75
2022-11-20T07:25:19.111Z,100961.44
2022-11-20T07:27:51.065Z,100957.94
2022-11-20T07:30:22.922Z,100955.34
2022-11-20T07:32:56.894Z,100947.56
2022-11-20T07:35:28.859Z,100958.75
2022-11-20T07:38:00.806Z,100954.56
2022-11-20T07:40:32.771Z,100953.16
2022-11-20T07:43:04.735Z,100946.38
2022-11-20T07:45:36.765Z,100944.69
2022-11-20T07:48:09.045Z,100946.72
2022-11-20T07:50:40.940Z,100944.97
2022-11-20T07:53:13.711Z,100952.38
2022-11-20T07:55:45.772Z,100962.75
2022-11-20T07:58:17.618Z,100955.78
2022-11-20T08:00:49.685Z,100965.47
2022-11-20T08:03:24.966Z,100950.88
2022-11-20T08:06:03.245Z,100964.94
2022-11-20T08:08:38.898Z,100964.75
2022-11-20T08:11:32.847Z,100958.25
2022-11-20T08:14:13.866Z,100951.56
2022-11-20T08:16:49.373Z,100949.19
2022-11-20T08:19:21.678Z,100951.97
2022-11-20T08:21:53.836Z,100961.94
2022-11-20T08:24:27.357Z,100941.81
2022-11-20T08:27:00.274Z,100935.72
2022-11-20T08:29:32.142Z,100958.06
2022-11-20T08:32:04.280Z,100948.19
2022-11-20T08:34:36.211Z,100950.19
2022-11-20T08:37:08.182Z,100945.19
2022-11-20T08:39:40.116Z,100953.16
2022-11-20T08:42:11.956Z,100949.06
2022-11-20T08:44:44.180Z,100955.16
2022-11-20T08:47:16.128Z,100942.88
2022-11-20T08:49:48.001Z,100952.94
2022-11-20T08:52:19.931Z,100953.16
2022-11-20T08:54:51.797Z,100955.94
2022-11-20T08:57:24.630Z,100945.75
2022-11-20T09:02:48.454Z,100936.47
2022-11-20T09:05:20.348Z,100943.63
2022-11-20T09:07:52.272Z,100943.63
2022-11-20T09:10:25.034Z,100942.94
2022-11-20T09:12:57.653Z,100945.63
2022-11-20T09:15:29.791Z,100932.75
2022-11-20T09:18:05.749Z,100934.09
2022-11-20T09:20:37.906Z,100931.91
2022-11-20T09:23:09.877Z,100933.06
2022-11-20T09:25:42.518Z,100930.66
2022-11-20T09:28:14.443Z,100923.28
2022-11-20T09:30:46.453Z,100924.09
2022-11-20T09:33:18.921Z,100916.03
2022-11-20T09:35:50.864Z,100918.50
2022-11-20T09:38:22.837Z,100918.69
2022-11-20T09:41:29.808Z,100907.69
2022-11-20T09:44:39.647Z,100906.00
2022-11-20T09:48:10.798Z,100904.31
2022-11-20T09:51:10.677Z,100891.50
2022-11-20T09:54:15.886Z,100894.63
2022-11-20T09:57:19.861Z,100892.16
2022-11-20T10:00:00.165Z,100882.47
2022-11-20T10:02:38.356Z,100882.66
2022-11-20T10:05:23.856Z,100872.34
2022-11-20T10:08:26.171Z,100873.72
2022-11-20T10:11:14.980Z,100864.22
2022-11-20T10:14:04.866Z,100858.50
2022-11-20T10:17:14.497Z,100852.19
2022-11-20T10:20:37.060Z,100840.88
2022-11-20T10:23:36.883Z,100830.00
2022-11-20T10:27:15.534Z,100816.22
2022-11-20T10:30:15.876Z,100816.28
2022-11-20T10:32:57.432Z,100823.75
2022-11-20T10:35:43.086Z,100820.31
2022-11-20T10:38:43.995Z,100798.63
2022-11-20T10:41:26.996Z,100798.88
2022-11-20T10:44:13.364Z,100786.06
2022-11-20T10:46:46.782Z,100783.19
2022-11-20T10:49:21.642Z,100768.31
2022-11-20T10:52:12.258Z,100774.75
2022-11-20T10:55:14.364Z,100775.38
2022-11-20T10:58:19.801Z,100767.50
2022-11-20T11:00:51.735Z,100758.97
2022-11-20T11:03:32.333Z,100752.34
2022-11-20T11:06:48.963Z,100744.44
2022-11-20T11:09:40.815Z,100748.75
2022-11-20T11:12:13.387Z,100753.47
2022-11-20T11:14:55.165Z,100750.88
2022-11-20T11:17:33.676Z,100718.63
2022-11-20T11:20:11.518Z,100741.19
2022-11-20T11:22:53.664Z,100738.66
2022-11-20T11:25:38.203Z,100741.38
2022-11-20T11:28:19.105Z,100740.72
2022-11-20T11:30:51.156Z,100742.78
2022-11-20T11:33:32.781Z,100746.53
2022-11-20T11:36:22.622Z,100740.34
2022-11-20T11:38:55.068Z,100734.31
2022-11-20T11:41:34.097Z,100712.03
2022-11-20T11:44:43.097Z,100721.22
2022-11-20T11:47:44.512Z,100713.34
2022-11-20T11:50:29.415Z,100717.81
2022-11-20T11:53:13.160Z,100706.69
2022-11-20T11:56:10.812Z,100677.88
2022-11-20T11:58:52.908Z,100671.88
2022-11-20T12:01:46.615Z,100689.19
2022-11-20T12:05:16.702Z,100677.94
2022-11-20T12:08:06.964Z,100672.88
2022-11-20T12:11:37.447Z,100669.44
2022-11-20T12:14:27.959Z,100655.78
2022-11-20T12:17:01.737Z,100625.53
2022-11-20T12:19:36.130Z,100622.50
2022-11-20T12:22:23.974Z,100623.56
2022-11-20T12:25:23.328Z,100613.16
2022-11-20T12:28:25.325Z,100620.16
2022-11-20T12:31:25.179Z,100616.00
2022-11-20T12:34:41.620Z,100607.03
2022-11-20T12:38:08.125Z,100611.19
2022-11-20T12:41:36.225Z,100601.78
2022-11-20T12:44:48.055Z,100591.41
2022-11-20T12:47:40.495Z,100587.41
2022-11-20T12:51:13.570Z,100579.91
2022-11-20T12:54:22.553Z,100578.53
2022-11-20T12:57:16.381Z,100565.88
2022-11-20T13:00:09.478Z,100557.25
2022-11-20T13:03:14.121Z,100535.66
2022-11-20T13:06:01.252Z,100534.34
2022-11-20T13:08:41.650Z,100524.31
2022-11-20T13:11:55.940Z,100525.25
2022-11-20T13:14:47.099Z,100506.72
2022-11-20T13:17:25.556Z,100510.28
2022-11-20T13:20:01.853Z,100494.88
2022-11-20T13:22:49.736Z,100499.28
2022-11-20T13:25:34.605Z,100493.69
2022-11-20T13:28:12.385Z,100492.69
2022-11-20T13:30:54.251Z,100486.38
2022-11-20T13:33:39.268Z,100479.53
2022-11-20T13:36:27.254Z,100477.00
2022-11-20T13:39:00.443Z,100465.53
2022-11-20T13:41:38.753Z,100472.81
2022-11-20T13:44:13.456Z,100457.25
2022-11-20T13:46:47.675Z,100453.72
2022-11-20T13:49:32.672Z,100453.59
2022-11-20T13:53:07.776Z,100447.47
2022-11-20T13:55:59.514Z,100443.44
2022-11-20T13:58:44.419Z,100434.94
2022-11-20T14:01:25.496Z,100421.84
2022-11-20T14:04:06.473Z,100432.59
2022-11-20T14:06:48.688Z,100416.91
2022-11-20T14:09:32.441Z,100424.06
2022-11-20T14:12:16.828Z,100414.53
2022-11-20T14:14:55.395Z,100412.66
2022-11-20T14:17:35.704Z,100403.13
2022-11-20T14:20:15.220Z,100389.31
2022-11-20T14:22:51.875Z,100390.34
2022-11-20T14:25:32.084Z,100395.63
2022-11-20T14:28:05.479Z,100393.97
2022-11-20T14:30:44.951Z,100380.66
2022-11-20T14:33:18.224Z,100376.63
2022-11-20T14:35:54.837Z,100394.88
2022-11-20T14:38:30.227Z,100373.84
2022-11-20T14:41:17.007Z,100380.06
2022-11-20T14:43:58.652Z,100373.19
2022-11-20T14:46:33.309Z,100349.13
2022-11-20T14:49:05.865Z,100364.69
2022-11-20T14:51:44.027Z,100366.44
2022-11-20T14:54:26.506Z,100362.91
2022-11-20T14:57:04.961Z,100334.91
2022-11-20T14:59:36.991Z,100340.25
2022-11-20T15:02:13.951Z,100328.09
2022-11-20T15:04:51.543Z,100319.38
2022-11-20T15:07:38.988Z,100301.00
2022-11-20T15:10:25.889Z,100296.63
2022-11-20T15:13:09.773Z,100288.50
2022-11-20T15:15:55.942Z,100291.25
2022-11-20T15:18:48.701Z,100283.44
2022-11-20T15:21:24.844Z,100277.53
2022-11-20T15:23:59.308Z,100281.16
2022-11-20T15:26:32.797Z,100259.41
2022-11-20T15:29:05.604Z,100263.78
2022-11-20T15:31:38.570Z,100262.97
2022-11-20T15:34:13.576Z,100233.75
2022-11-20T15:36:45.566Z,100247.38
2022-11-20T15:39:17.537Z,100233.31
2022-11-20T15:41:49.463Z,100227.22
2022-11-20T15:44:21.571Z,100233.66
2022-11-20T15:46:53.918Z,100230.13
2022-11-20T15:49:26.519Z,100217.88
2022-11-20T15:51:58.736Z,100220.81
2022-11-20T15:54:30.934Z,100217.28
2022-11-20T15:57:03.907Z,100208.31
2022-11-20T15:59:37.973Z,100189.66
2022-11-20T16:02:18.669Z,100190.56
2022-11-20T16:04:51.209Z,100184.63
2022-11-20T16:07:23.259Z,100188.22
2022-11-20T16:09:57.609Z,100190.09
2022-11-20T16:12:48.235Z,100178.00
2022-11-20T16:15:39.005Z,100177.25
2022-11-20T16:18:14.402Z,100165.78
2022-11-20T16:20:49.412Z,100173.03
2022-11-20T16:23:22.400Z,100175.75
2022-11-20T16:25:54.471Z,100164.41
2022-11-20T16:28:26.478Z,100171.50
2022-11-20T16:30:58.490Z,100165.44
2022-11-20T16:33:30.396Z,100154.94
2022-11-20T16:36:16.160Z,100150.47
2022-11-20T16:38:53.393Z,100140.22
2022-11-20T16:41:27.663Z,100132.53
2022-11-20T16:44:02.915Z,100141.69
2022-11-20T16:46:34.910Z,100141.88
2022-11-20T16:49:13.239Z,100122.69
2022-11-20T16:51:45.153Z,100134.25
2022-11-20T16:54:20.765Z,100117.75
2022-11-20T16:56:54.280Z,100079.81
2022-11-20T16:59:26.208Z,100101.25
2022-11-20T17:01:58.165Z,100089.75
2022-11-20T17:04:30.208Z,100106.56
2022-11-20T17:07:07.898Z,100106.56
2022-11-20T17:09:41.007Z,100085.56
2022-11-20T17:12:12.963Z,100065.19
2022-11-20T17:14:44.966Z,100097.22
2022-11-20T17:17:17.047Z,100090.25
2022-11-20T17:19:49.058Z,100076.53
2022-11-20T17:22:21.019Z,100056.47
2022-11-20T17:24:53.008Z,100060.97
2022-11-20T17:27:25.028Z,100053.22
2022-11-20T17:29:58.968Z,100049.88
2022-11-20T17:32:30.874Z,100021.03
2022-11-20T17:35:02.926Z,100007.81
2022-11-20T17:37:34.846Z,100027.56
2022-11-20T17:40:07.409Z,100028.56
2022-11-20T17:42:39.367Z,100024.41
2022-11-20T17:45:11.457Z,100025.31
2022-11-20T17:47:44.501Z,100025.66
2022-11-20T17:50:16.491Z,100035.34
2022-11-20T17:52:48.506Z,100040.81
2022-11-20T17:55:20.485Z,100051.44
2022-11-20T17:57:52.495Z,100058.56
2022-11-20T18:00:25.394Z,100062.19
2022-11-20T18:02:57.631Z,100057.06
2022-11-20T18:05:29.505Z,100065.06
2022-11-20T18:08:01.762Z,100057.06
2022-11-20T18:10:35.295Z,100082.66
2022-11-20T18:13:07.241Z,100080.94
2022-11-20T18:15:39.201Z,100071.19
2022-11-20T18:18:11.081Z,100088.94
2022-11-20T18:20:43.081Z,100090.81
2022-11-20T18:23:15.009Z,100096.94
2022-11-20T18:25:47.545Z,100103.06
2022-11-20T18:28:20.111Z,100103.06
2022-11-20T18:30:52.020Z,100110.94
2022-11-20T18:33:28.381Z,100102.94
2022-11-20T18:36:22.485Z,100110.75
2022-11-20T18:38:58.237Z,100092.13
2022-11-20T18:41:50.500Z,100114.41
2022-11-20T18:44:47.737Z,100105.63
2022-11-20T18:47:30.747Z,100106.44
2022-11-20T18:50:04.255Z,100108.94
2022-11-20T18:52:44.299Z,100116.88
2022-11-20T18:55:16.415Z,100116.09
2022-11-20T18:57:48.320Z,100104.63
2022-11-20T19:00:20.221Z,100115.09
2022-11-20T19:02:55.268Z,100113.41
2022-11-20T19:05:27.224Z,100125.63
2022-11-20T19:07:59.175Z,100129.88
2022-11-20T19:10:31.162Z,100120.22
2022-11-20T19:13:03.288Z,100128.91
2022-11-20T19:15:37.016Z,100137.00
2022-11-20T19:18:09.282Z,100138.69
2022-11-20T19:20:41.234Z,100142.16
2022-11-20T19:23:13.497Z,100146.47
2022-11-20T19:25:45.447Z,100144.75
2022-11-20T19:28:17.350Z,100154.25
2022-11-20T19:30:49.311Z,100148.16
2022-11-20T19:33:21.230Z,100154.38
2022-11-20T19:35:53.445Z,100157.75
2022-11-20T19:38:25.638Z,100161.25
2022-11-20T19:40:57.574Z,100164.69
2022-11-20T19:43:29.499Z,100164.63
2022-11-20T19:46:02.672Z,100163.63
2022-11-20T19:48:37.675Z,100168.94
2022-11-20T19:51:19.844Z,100141.56
2022-11-20T19:53:52.741Z,100160.25
2022-11-20T19:56:26.533Z,100162.06
2022-11-20T19:58:58.853Z,100171.63
2022-11-20T20:01:32.199Z,100179.53
2022-11-20T20:04:05.450Z,100176.06
2022-11-20T20:06:39.112Z,100174.41
2022-11-20T20:09:13.358Z,100163.63
2022-11-20T20:11:46.991Z,100167.47
2022-11-20T20:14:19.278Z,100179.66
2022-11-20T20:16:51.238Z,100186.53
2022-11-20T20:19:23.465Z,100189.03
2022-11-20T20:21:55.639Z,100190.00
2022-11-20T20:24:27.529Z,100188.22
2022-11-20T20:26:59.464Z,100201.38
2022-11-20T20:29:31.407Z,100195.28
2022-11-20T20:32:03.328Z,100180.91
2022-11-20T20:34:35.281Z,100204.00
2022-11-20T20:37:07.173Z,100201.56
2022-11-20T20:39:39.111Z,100209.44
2022-11-20T20:42:11.039Z,100195.53
2022-11-20T20:45:01.457Z,100203.31
2022-11-20T20:47:39.294Z,100193.66
2022-11-20T20:50:13.268Z,100198.06
2022-11-20T20:52:45.363Z,100205.00
2022-11-20T20:55:17.445Z,100199.78
2022-11-20T20:57:49.365Z,100206.78
2022-11-20T21:00:21.426Z,100219.00
2022-11-20T21:02:53.478Z,100216.56
2022-11-20T21:05:25.448Z,100226.94
2022-11-20T21:08:16.165Z,100241.03
2022-11-20T21:11:12.824Z,100233.97
2022-11-20T21:13:46.841Z,100220.09
2022-11-20T21:16:25.114Z,100227.84
2022-11-20T21:18:57.021Z,100231.22
2022-11-20T21:21:47.515Z,100238.28
2022-11-20T21:24:19.502Z,100227.03
2022-11-20T21:26:52.294Z,100232.25
2022-11-20T21:29:27.994Z,100233.06
2022-11-20T21:31:59.933Z,100235.78
2022-11-20T21:34:31.909Z,100231.47
2022-11-20T21:37:03.852Z,100235.78
2022-11-20T21:39:50.590Z,100245.59
2022-11-20T21:42:22.652Z,100248.31
2022-11-20T21:44:54.534Z,100258.00
2022-11-20T21:47:26.491Z,100250.13
2022-11-20T21:49:58.388Z,100258.81
2022-11-20T21:52:30.301Z,100258.81
2022-11-20T21:55:02.555Z,100230.56
2022-11-20T21:57:35.721Z,100247.63
2022-11-20T22:00:08.879Z,100239.78
2022-11-20T22:02:40.853Z,100244.97
2022-11-20T22:05:12.853Z,100250.03
2022-11-20T22:07:45.830Z,100247.38
2022-11-20T22:10:18.843Z,100253.47
2022-11-20T22:12:50.813Z,100233.94
2022-11-20T22:15:53.237Z,100259.50
2022-11-20T22:18:14.721Z,100260.41
2022-11-20T22:20:46.624Z,100263.13
2022-11-20T22:23:18.571Z,100264.69
2022-11-20T22:25:50.498Z,100283.13
2022-11-20T22:28:22.471Z,100280.53
2022-11-20T22:31:01.552Z,100281.53
2022-11-20T22:33:35.384Z,100291.34
2022-11-20T22:36:19.670Z,100299.13
2022-11-20T22:38:52.396Z,100316.53
2022-11-20T22:41:29.026Z,100317.25
2022-11-20T22:44:07.806Z,100304.25
2022-11-20T22:46:39.720Z,100272.31
2022-11-20T22:49:11.700Z,100282.94
2022-11-20T22:51:43.618Z,100288.00
2022-11-20T22:54:15.679Z,100281.03
2022-11-20T22:56:47.631Z,100283.56
2022-11-20T22:59:19.556Z,100284.47
2022-11-20T23:01:51.506Z,100261.25
2022-11-20T23:04:23.738Z,100295.91
2022-11-20T23:06:55.925Z,100298.63
2022-11-20T23:09:28.351Z,100294.09
2022-11-20T23:12:00.256Z,100278.13
2022-11-20T23:14:32.689Z,100296.31
2022-11-20T23:17:04.984Z,100350.03
2022-11-20T23:19:36.945Z,100346.28
2022-11-20T23:22:08.844Z,100342.81
2022-11-20T23:24:40.849Z,100348.78
2022-11-20T23:27:12.765Z,100340.59
2022-11-20T23:29:44.778Z,100327.34
2022-11-20T23:32:16.752Z,100345.13
2022-11-20T23:34:48.665Z,100310.41
2022-11-20T23:37:20.541Z,100346.13
2022-11-20T23:39:52.439Z,100347.00
2022-11-20T23:42:24.363Z,100340.94
2022-11-20T23:44:56.254Z,100342.78
2022-11-20T23:47:28.159Z,100331.44
2022-11-20T23:50:00.057Z,100331.31
2022-11-20T23:52:31.941Z,100341.88
2022-11-20T23:55:04.238Z,100336.47
2022-11-20T23:57:36.147Z,100345.16
